Florence, Kentucky
Current Conditions -  °F | °C
As of 2:52 PM on Wednesday 28 Jan 2015 (Local Time) from KCVG Reporting Station
Scattered Clouds Scattered Clouds  
Wind Chill: 28°   Ceiling: Unl
Heat Index: 35°   Visibility: 10mi
Dew Point: 18°   Wind: 9mph
Humidity: 50%   Direction: 140°SE
Pressure: 30.26"   Gusts: NA
Location:  39°N, 84.63°W
Report Text: KCVG 281952Z 14008KT 10SM SCT300 02/M08 A3026 RMK AO2 SLP257 T00171078 VISNO 36R $
Loading
Personal Weather Stations






























Interactive Weather Map New forecast layout! Learn more

10-Day Weather Forecast

Advertisements
Track Severe Weather on mobile